sensor_id;sensor_type;location;lat;lon;timestamp;temperature;humidity
59857;DHT22;45733;52.668;6.860;2022-07-18T00:02:02;15.10;99.90
59857;DHT22;45733;52.668;6.860;2022-07-18T00:04:28;15.10;99.90
59857;DHT22;45733;52.668;6.860;2022-07-18T00:06:54;15.10;99.90
59857;DHT22;45733;52.668;6.860;2022-07-18T00:09:22;15.00;99.90
59857;DHT22;45733;52.668;6.860;2022-07-18T00:11:49;15.10;99.90
59857;DHT22;45733;52.668;6.860;2022-07-18T00:14:15;15.00;99.90
59857;DHT22;45733;52.668;6.860;2022-07-18T00:16:40;14.90;99.90
59857;DHT22;45733;52.668;6.860;2022-07-18T00:19:06;14.90;99.90
59857;DHT22;45733;52.668;6.860;2022-07-18T00:21:32;14.80;99.90
59857;DHT22;45733;52.668;6.860;2022-07-18T00:23:57;14.80;99.90
59857;DHT22;45733;52.668;6.860;2022-07-18T00:26:24;14.80;99.90
59857;DHT22;45733;52.668;6.860;2022-07-18T00:28:50;14.70;99.90
59857;DHT22;45733;52.668;6.860;2022-07-18T00:31:15;14.70;99.90
59857;DHT22;45733;52.668;6.860;2022-07-18T00:33:41;14.60;99.90
59857;DHT22;45733;52.668;6.860;2022-07-18T00:36:09;14.60;99.90
59857;DHT22;45733;52.668;6.860;2022-07-18T00:38:35;14.60;99.90
59857;DHT22;45733;52.668;6.860;2022-07-18T00:41:01;14.60;99.90
59857;DHT22;45733;52.668;6.860;2022-07-18T00:43:26;14.70;99.90
59857;DHT22;45733;52.668;6.860;2022-07-18T00:45:52;14.60;99.90
59857;DHT22;45733;52.668;6.860;2022-07-18T00:48:18;14.60;99.90
59857;DHT22;45733;52.668;6.860;2022-07-18T00:50:44;14.60;99.90
59857;DHT22;45733;52.668;6.860;2022-07-18T00:53:10;14.50;99.90
59857;DHT22;45733;52.668;6.860;2022-07-18T00:55:39;14.50;99.90
59857;DHT22;45733;52.668;6.860;2022-07-18T00:58:05;14.50;99.90
59857;DHT22;45733;52.668;6.860;2022-07-18T01:00:30;14.50;99.90
59857;DHT22;45733;52.668;6.860;2022-07-18T01:03:15;14.50;99.90
59857;DHT22;45733;52.668;6.860;2022-07-18T01:05:40;14.50;99.90
59857;DHT22;45733;52.668;6.860;2022-07-18T01:08:06;14.50;99.90
59857;DHT22;45733;52.668;6.860;2022-07-18T01:10:32;14.70;99.90
59857;DHT22;45733;52.668;6.860;2022-07-18T01:12:57;14.60;99.90
59857;DHT22;45733;52.668;6.860;2022-07-18T01:15:23;14.50;99.90
59857;DHT22;45733;52.668;6.860;2022-07-18T01:17:49;14.50;99.90
59857;DHT22;45733;52.668;6.860;2022-07-18T01:20:14;14.50;99.90
59857;DHT22;45733;52.668;6.860;2022-07-18T01:22:40;14.50;99.90
59857;DHT22;45733;52.668;6.860;2022-07-18T01:25:07;14.60;99.90
59857;DHT22;45733;52.668;6.860;2022-07-18T01:27:33;14.60;99.90
59857;DHT22;45733;52.668;6.860;2022-07-18T01:29:59;14.60;99.90
59857;DHT22;45733;52.668;6.860;2022-07-18T01:32:25;14.40;99.90
59857;DHT22;45733;52.668;6.860;2022-07-18T01:34:50;14.40;99.90
59857;DHT22;45733;52.668;6.860;2022-07-18T01:37:16;14.40;99.90
59857;DHT22;45733;52.668;6.860;2022-07-18T01:39:42;14.50;99.90
59857;DHT22;45733;52.668;6.860;2022-07-18T01:42:08;14.50;99.90
59857;DHT22;45733;52.668;6.860;2022-07-18T01:44:34;14.50;99.90
59857;DHT22;45733;52.668;6.860;2022-07-18T01:47:00;14.40;99.90
59857;DHT22;45733;52.668;6.860;2022-07-18T01:49:26;14.30;99.90
59857;DHT22;45733;52.668;6.860;2022-07-18T01:51:53;14.30;99.90
59857;DHT22;45733;52.668;6.860;2022-07-18T01:54:19;14.30;99.90
59857;DHT22;45733;52.668;6.860;2022-07-18T01:56:45;14.30;99.90
59857;DHT22;45733;52.668;6.860;2022-07-18T01:59:10;14.50;99.90
59857;DHT22;45733;52.668;6.860;2022-07-18T02:01:36;14.50;99.90
59857;DHT22;45733;52.668;6.860;2022-07-18T02:04:02;14.60;99.90
59857;DHT22;45733;52.668;6.860;2022-07-18T02:06:27;14.70;99.90
59857;DHT22;45733;52.668;6.860;2022-07-18T02:08:53;14.70;99.90
59857;DHT22;45733;52.668;6.860;2022-07-18T02:11:19;14.50;99.90
59857;DHT22;45733;52.668;6.860;2022-07-18T02:13:44;14.40;99.90
59857;DHT22;45733;52.668;6.860;2022-07-18T02:16:10;14.30;99.90
59857;DHT22;45733;52.668;6.860;2022-07-18T02:18:36;14.40;99.90
59857;DHT22;45733;52.668;6.860;2022-07-18T02:21:01;14.30;99.90
59857;DHT22;45733;52.668;6.860;2022-07-18T02:23:27;14.30;99.90
59857;DHT22;45733;52.668;6.860;2022-07-18T02:25:53;14.40;99.90
59857;DHT22;45733;52.668;6.860;2022-07-18T02:28:19;14.40;99.90
59857;DHT22;45733;52.668;6.860;2022-07-18T02:30:45;14.20;99.90
59857;DHT22;45733;52.668;6.860;2022-07-18T02:33:11;14.20;99.90
59857;DHT22;45733;52.668;6.860;2022-07-18T02:35:37;14.10;99.90
59857;DHT22;45733;52.668;6.860;2022-07-18T02:38:02;14.10;99.90
59857;DHT22;45733;52.668;6.860;2022-07-18T02:40:28;14.10;99.90
59857;DHT22;45733;52.668;6.860;2022-07-18T02:42:54;14.10;99.90
59857;DHT22;45733;52.668;6.860;2022-07-18T02:45:19;14.10;99.90
59857;DHT22;45733;52.668;6.860;2022-07-18T02:47:45;14.00;99.90
59857;DHT22;45733;52.668;6.860;2022-07-18T02:50:12;13.90;99.90
59857;DHT22;45733;52.668;6.860;2022-07-18T02:52:39;13.90;99.90
59857;DHT22;45733;52.668;6.860;2022-07-18T02:55:04;13.90;99.90
59857;DHT22;45733;52.668;6.860;2022-07-18T02:57:30;13.80;99.90
59857;DHT22;45733;52.668;6.860;2022-07-18T02:59:56;13.90;99.90
59857;DHT22;45733;52.668;6.860;2022-07-18T03:02:21;14.00;99.90
59857;DHT22;45733;52.668;6.860;2022-07-18T03:04:47;14.00;99.90
59857;DHT22;45733;52.668;6.860;2022-07-18T03:07:13;14.00;99.90
59857;DHT22;45733;52.668;6.860;2022-07-18T03:09:39;13.90;99.90
59857;DHT22;45733;52.668;6.860;2022-07-18T03:12:04;14.00;99.90
59857;DHT22;45733;52.668;6.860;2022-07-18T03:14:30;14.00;99.90
59857;DHT22;45733;52.668;6.860;2022-07-18T03:16:55;14.10;99.90
59857;DHT22;45733;52.668;6.860;2022-07-18T03:19:21;14.10;99.90
59857;DHT22;45733;52.668;6.860;2022-07-18T03:21:47;14.20;99.90
59857;DHT22;45733;52.668;6.860;2022-07-18T03:24:13;14.20;99.90
59857;DHT22;45733;52.668;6.860;2022-07-18T03:26:41;14.30;99.90
59857;DHT22;45733;52.668;6.860;2022-07-18T03:29:07;14.40;99.90
59857;DHT22;45733;52.668;6.860;2022-07-18T03:31:33;14.40;99.90
59857;DHT22;45733;52.668;6.860;2022-07-18T03:33:59;14.30;99.90
59857;DHT22;45733;52.668;6.860;2022-07-18T03:36:24;14.30;99.90
59857;DHT22;45733;52.668;6.860;2022-07-18T03:38:50;14.30;99.90
59857;DHT22;45733;52.668;6.860;2022-07-18T03:41:16;14.10;99.90
59857;DHT22;45733;52.668;6.860;2022-07-18T03:43:41;14.00;99.90
59857;DHT22;45733;52.668;6.860;2022-07-18T03:46:07;14.10;99.90
59857;DHT22;45733;52.668;6.860;2022-07-18T03:48:33;14.00;99.90
59857;DHT22;45733;52.668;6.860;2022-07-18T03:51:00;14.20;99.90
59857;DHT22;45733;52.668;6.860;2022-07-18T03:53:25;14.40;99.90
59857;DHT22;45733;52.668;6.860;2022-07-18T03:55:51;14.50;99.90
59857;DHT22;45733;52.668;6.860;2022-07-18T03:58:17;14.50;99.90
59857;DHT22;45733;52.668;6.860;2022-07-18T04:00:43;14.30;99.90
59857;DHT22;45733;52.668;6.860;2022-07-18T04:03:08;14.30;99.90
59857;DHT22;45733;52.668;6.860;2022-07-18T04:05:34;14.20;99.90
59857;DHT22;45733;52.668;6.860;2022-07-18T04:07:59;14.00;99.90
59857;DHT22;45733;52.668;6.860;2022-07-18T04:10:25;14.00;99.90
59857;DHT22;45733;52.668;6.860;2022-07-18T04:12:52;14.00;99.90
59857;DHT22;45733;52.668;6.860;2022-07-18T04:15:18;14.10;99.90
59857;DHT22;45733;52.668;6.860;2022-07-18T04:17:45;14.10;99.90
59857;DHT22;45733;52.668;6.860;2022-07-18T04:20:11;14.10;99.90
59857;DHT22;45733;52.668;6.860;2022-07-18T04:22:53;14.20;99.90
59857;DHT22;45733;52.668;6.860;2022-07-18T04:25:19;14.20;99.90
59857;DHT22;45733;52.668;6.860;2022-07-18T04:27:45;14.20;99.90
59857;DHT22;45733;52.668;6.860;2022-07-18T04:30:11;14.10;99.90
59857;DHT22;45733;52.668;6.860;2022-07-18T04:32:37;14.20;99.90
59857;DHT22;45733;52.668;6.860;2022-07-18T04:35:03;14.30;99.90
59857;DHT22;45733;52.668;6.860;2022-07-18T04:37:29;14.30;99.90
59857;DHT22;45733;52.668;6.860;2022-07-18T04:39:55;14.40;99.90
59857;DHT22;45733;52.668;6.860;2022-07-18T04:42:21;14.40;99.90
59857;DHT22;45733;52.668;6.860;2022-07-18T04:44:46;14.50;99.90
59857;DHT22;45733;52.668;6.860;2022-07-18T04:47:12;14.50;99.90
59857;DHT22;45733;52.668;6.860;2022-07-18T04:49:37;14.60;99.90
59857;DHT22;45733;52.668;6.860;2022-07-18T04:52:03;14.70;99.90
59857;DHT22;45733;52.668;6.860;2022-07-18T04:54:29;14.90;99.90
59857;DHT22;45733;52.668;6.860;2022-07-18T04:56:55;16.10;99.90
59857;DHT22;45733;52.668;6.860;2022-07-18T04:59:20;17.10;99.90
59857;DHT22;45733;52.668;6.860;2022-07-18T05:01:46;18.10;99.90
59857;DHT22;45733;52.668;6.860;2022-07-18T05:04:11;17.00;99.90
59857;DHT22;45733;52.668;6.860;2022-07-18T05:06:37;16.50;99.90
59857;DHT22;45733;52.668;6.860;2022-07-18T05:09:03;16.30;99.90
59857;DHT22;45733;52.668;6.860;2022-07-18T05:11:28;16.10;99.90
59857;DHT22;45733;52.668;6.860;2022-07-18T05:13:54;16.10;99.90
59857;DHT22;45733;52.668;6.860;2022-07-18T05:16:20;16.60;99.90
59857;DHT22;45733;52.668;6.860;2022-07-18T05:18:45;18.90;99.90
59857;DHT22;45733;52.668;6.860;2022-07-18T05:21:11;19.90;99.90
59857;DHT22;45733;52.668;6.860;2022-07-18T05:23:37;20.30;99.90
59857;DHT22;45733;52.668;6.860;2022-07-18T05:26:02;19.40;99.90
59857;DHT22;45733;52.668;6.860;2022-07-18T05:28:28;18.40;99.90
59857;DHT22;45733;52.668;6.860;2022-07-18T05:30:54;17.90;99.90
59857;DHT22;45733;52.668;6.860;2022-07-18T05:33:20;17.60;99.90
59857;DHT22;45733;52.668;6.860;2022-07-18T05:35:46;17.50;99.90
59857;DHT22;45733;52.668;6.860;2022-07-18T05:38:11;17.80;99.90
59857;DHT22;45733;52.668;6.860;2022-07-18T05:40:37;18.60;99.90
59857;DHT22;45733;52.668;6.860;2022-07-18T05:43:03;19.40;99.90
59857;DHT22;45733;52.668;6.860;2022-07-18T05:45:29;18.40;99.90
59857;DHT22;45733;52.668;6.860;2022-07-18T05:47:55;18.40;99.90
59857;DHT22;45733;52.668;6.860;2022-07-18T05:50:21;18.00;99.90
59857;DHT22;45733;52.668;6.860;2022-07-18T05:52:47;17.80;99.90
59857;DHT22;45733;52.668;6.860;2022-07-18T05:55:12;17.70;99.90
59857;DHT22;45733;52.668;6.860;2022-07-18T05:57:38;17.70;99.90
59857;DHT22;45733;52.668;6.860;2022-07-18T06:00:04;17.90;99.90
59857;DHT22;45733;52.668;6.860;2022-07-18T06:02:30;18.20;99.90
59857;DHT22;45733;52.668;6.860;2022-07-18T06:04:55;18.40;99.90
59857;DHT22;45733;52.668;6.860;2022-07-18T06:07:21;18.70;99.90
59857;DHT22;45733;52.668;6.860;2022-07-18T06:09:47;19.00;99.90
59857;DHT22;45733;52.668;6.860;2022-07-18T06:12:12;19.40;99.90
59857;DHT22;45733;52.668;6.860;2022-07-18T06:14:38;19.30;99.90
59857;DHT22;45733;52.668;6.860;2022-07-18T06:17:04;19.20;99.90
59857;DHT22;45733;52.668;6.860;2022-07-18T06:19:30;19.00;99.90
59857;DHT22;45733;52.668;6.860;2022-07-18T06:21:55;18.80;99.90
59857;DHT22;45733;52.668;6.860;2022-07-18T06:24:21;18.70;99.90
59857;DHT22;45733;52.668;6.860;2022-07-18T06:26:47;18.80;99.90
59857;DHT22;45733;52.668;6.860;2022-07-18T06:29:15;18.80;99.90
59857;DHT22;45733;52.668;6.860;2022-07-18T06:31:40;18.80;99.90
59857;DHT22;45733;52.668;6.860;2022-07-18T06:34:06;18.90;99.90
59857;DHT22;45733;52.668;6.860;2022-07-18T06:36:32;19.10;99.90
59857;DHT22;45733;52.668;6.860;2022-07-18T06:38:58;19.20;99.90
59857;DHT22;45733;52.668;6.860;2022-07-18T06:41:23;19.40;99.90
59857;DHT22;45733;52.668;6.860;2022-07-18T06:43:49;19.40;99.90
59857;DHT22;45733;52.668;6.860;2022-07-18T06:46:14;19.70;99.90
59857;DHT22;45733;52.668;6.860;2022-07-18T06:48:40;19.80;99.90
59857;DHT22;45733;52.668;6.860;2022-07-18T06:51:07;20.00;99.90
59857;DHT22;45733;52.668;6.860;2022-07-18T06:53:33;20.00;99.90
59857;DHT22;45733;52.668;6.860;2022-07-18T06:55:59;20.30;99.90
59857;DHT22;45733;52.668;6.860;2022-07-18T06:58:28;20.50;99.90
59857;DHT22;45733;52.668;6.860;2022-07-18T07:00:56;20.50;99.90
59857;DHT22;45733;52.668;6.860;2022-07-18T07:03:22;20.60;99.90
59857;DHT22;45733;52.668;6.860;2022-07-18T07:05:48;20.80;99.90
59857;DHT22;45733;52.668;6.860;2022-07-18T07:08:16;20.80;99.90
59857;DHT22;45733;52.668;6.860;2022-07-18T07:10:41;21.10;99.90
59857;DHT22;45733;52.668;6.860;2022-07-18T07:13:07;21.40;99.90
59857;DHT22;45733;52.668;6.860;2022-07-18T07:15:33;21.80;99.90
59857;DHT22;45733;52.668;6.860;2022-07-18T07:17:58;22.10;99.90
59857;DHT22;45733;52.668;6.860;2022-07-18T07:20:24;22.70;99.90
59857;DHT22;45733;52.668;6.860;2022-07-18T07:22:51;22.80;99.90
59857;DHT22;45733;52.668;6.860;2022-07-18T07:25:17;23.30;99.90
59857;DHT22;45733;52.668;6.860;2022-07-18T07:27:43;23.50;99.90
59857;DHT22;45733;52.668;6.860;2022-07-18T07:30:09;24.00;99.90
59857;DHT22;45733;52.668;6.860;2022-07-18T07:32:36;23.90;99.90
59857;DHT22;45733;52.668;6.860;2022-07-18T07:35:03;24.20;99.90
59857;DHT22;45733;52.668;6.860;2022-07-18T07:37:34;24.40;99.90
59857;DHT22;45733;52.668;6.860;2022-07-18T07:40:00;24.50;99.90
59857;DHT22;45733;52.668;6.860;2022-07-18T07:42:26;24.60;99.90
59857;DHT22;45733;52.668;6.860;2022-07-18T07:44:51;24.90;99.90
59857;DHT22;45733;52.668;6.860;2022-07-18T07:47:17;25.20;99.90
59857;DHT22;45733;52.668;6.860;2022-07-18T07:49:43;25.40;99.90
59857;DHT22;45733;52.668;6.860;2022-07-18T07:52:08;25.40;99.90
59857;DHT22;45733;52.668;6.860;2022-07-18T07:54:35;25.80;99.90
59857;DHT22;45733;52.668;6.860;2022-07-18T07:57:01;26.00;99.90
59857;DHT22;45733;52.668;6.860;2022-07-18T07:59:27;25.90;99.90
59857;DHT22;45733;52.668;6.860;2022-07-18T08:01:52;26.00;99.90
59857;DHT22;45733;52.668;6.860;2022-07-18T08:04:18;26.10;99.80
59857;DHT22;45733;52.668;6.860;2022-07-18T08:06:44;26.10;98.10
59857;DHT22;45733;52.668;6.860;2022-07-18T08:09:09;26.30;99.60
59857;DHT22;45733;52.668;6.860;2022-07-18T08:11:35;26.30;98.10
59857;DHT22;45733;52.668;6.860;2022-07-18T08:14:01;26.40;99.20
59857;DHT22;45733;52.668;6.860;2022-07-18T08:16:27;26.70;99.90
59857;DHT22;45733;52.668;6.860;2022-07-18T08:18:52;26.80;99.10
59857;DHT22;45733;52.668;6.860;2022-07-18T08:21:18;26.80;96.90
59857;DHT22;45733;52.668;6.860;2022-07-18T08:23:44;27.00;97.90
59857;DHT22;45733;52.668;6.860;2022-07-18T08:26:12;27.30;98.80
59857;DHT22;45733;52.668;6.860;2022-07-18T08:28:38;27.10;96.80
59857;DHT22;45733;52.668;6.860;2022-07-18T08:31:03;27.40;97.30
59857;DHT22;45733;52.668;6.860;2022-07-18T08:33:29;27.30;93.20
59857;DHT22;45733;52.668;6.860;2022-07-18T08:35:55;27.50;94.10
59857;DHT22;45733;52.668;6.860;2022-07-18T08:38:20;27.80;94.40
59857;DHT22;45733;52.668;6.860;2022-07-18T08:40:49;27.70;94.00
59857;DHT22;45733;52.668;6.860;2022-07-18T08:43:17;27.70;93.60
59857;DHT22;45733;52.668;6.860;2022-07-18T08:45:43;27.80;92.70
59857;DHT22;45733;52.668;6.860;2022-07-18T08:48:09;28.00;93.10
59857;DHT22;45733;52.668;6.860;2022-07-18T08:50:35;28.00;91.30
59857;DHT22;45733;52.668;6.860;2022-07-18T08:53:00;27.70;90.90
59857;DHT22;45733;52.668;6.860;2022-07-18T08:55:26;27.70;92.40
59857;DHT22;45733;52.668;6.860;2022-07-18T08:57:53;27.60;92.30
59857;DHT22;45733;52.668;6.860;2022-07-18T09:00:19;27.90;93.80
59857;DHT22;45733;52.668;6.860;2022-07-18T09:02:46;28.10;92.60
59857;DHT22;45733;52.668;6.860;2022-07-18T09:05:18;28.20;92.30
59857;DHT22;45733;52.668;6.860;2022-07-18T09:07:44;28.30;91.90
59857;DHT22;45733;52.668;6.860;2022-07-18T09:10:10;28.50;91.60
59857;DHT22;45733;52.668;6.860;2022-07-18T09:12:36;28.80;91.80
59857;DHT22;45733;52.668;6.860;2022-07-18T09:15:05;29.00;92.90
59857;DHT22;45733;52.668;6.860;2022-07-18T09:17:32;29.20;91.50
59857;DHT22;45733;52.668;6.860;2022-07-18T09:22:24;29.30;89.10
59857;DHT22;45733;52.668;6.860;2022-07-18T09:25:01;29.30;87.60
59857;DHT22;45733;52.668;6.860;2022-07-18T09:30:27;29.70;90.00
59857;DHT22;45733;52.668;6.860;2022-07-18T09:32:47;29.40;87.40
59857;DHT22;45733;52.668;6.860;2022-07-18T09:35:35;29.40;81.40
59857;DHT22;45733;52.668;6.860;2022-07-18T09:38:00;29.20;83.90
59857;DHT22;45733;52.668;6.860;2022-07-18T09:40:32;29.20;84.00
59857;DHT22;45733;52.668;6.860;2022-07-18T09:43:00;29.40;87.80
59857;DHT22;45733;52.668;6.860;2022-07-18T09:45:31;29.60;84.50
59857;DHT22;45733;52.668;6.860;2022-07-18T09:48:01;30.00;86.90
59857;DHT22;45733;52.668;6.860;2022-07-18T09:50:28;30.30;85.40
59857;DHT22;45733;52.668;6.860;2022-07-18T09:55:23;30.30;85.00
59857;DHT22;45733;52.668;6.860;2022-07-18T10:00:42;30.40;83.90
59857;DHT22;45733;52.668;6.860;2022-07-18T10:03:08;30.20;81.60
59857;DHT22;45733;52.668;6.860;2022-07-18T10:05:35;30.50;84.90
59857;DHT22;45733;52.668;6.860;2022-07-18T10:08:02;30.50;82.70
59857;DHT22;45733;52.668;6.860;2022-07-18T10:10:29;30.30;80.80
59857;DHT22;45733;52.668;6.860;2022-07-18T10:12:55;30.50;80.40
59857;DHT22;45733;52.668;6.860;2022-07-18T10:15:22;30.80;79.90
59857;DHT22;45733;52.668;6.860;2022-07-18T10:17:48;31.00;81.40
59857;DHT22;45733;52.668;6.860;2022-07-18T10:20:14;31.30;82.20
59857;DHT22;45733;52.668;6.860;2022-07-18T10:22:40;31.00;79.50
59857;DHT22;45733;52.668;6.860;2022-07-18T10:25:08;31.00;80.10
59857;DHT22;45733;52.668;6.860;2022-07-18T10:27:53;30.90;73.90
59857;DHT22;45733;52.668;6.860;2022-07-18T10:30:31;31.00;78.20
59857;DHT22;45733;52.668;6.860;2022-07-18T10:32:57;31.20;78.20
59857;DHT22;45733;52.668;6.860;2022-07-18T10:35:57;31.30;76.60
59857;DHT22;45733;52.668;6.860;2022-07-18T10:38:21;31.30;78.00
59857;DHT22;45733;52.668;6.860;2022-07-18T10:41:07;31.20;78.30
59857;DHT22;45733;52.668;6.860;2022-07-18T10:43:37;31.00;78.40
59857;DHT22;45733;52.668;6.860;2022-07-18T10:46:03;31.00;75.20
59857;DHT22;45733;52.668;6.860;2022-07-18T10:51:11;31.20;76.60
59857;DHT22;45733;52.668;6.860;2022-07-18T10:58:54;31.40;72.50
59857;DHT22;45733;52.668;6.860;2022-07-18T11:01:20;31.60;70.30
59857;DHT22;45733;52.668;6.860;2022-07-18T11:03:47;31.70;68.70
59857;DHT22;45733;52.668;6.860;2022-07-18T11:06:14;31.80;72.20
59857;DHT22;45733;52.668;6.860;2022-07-18T11:08:40;31.80;70.00
59857;DHT22;45733;52.668;6.860;2022-07-18T11:11:07;31.80;67.70
59857;DHT22;45733;52.668;6.860;2022-07-18T11:13:33;31.80;70.70
59857;DHT22;45733;52.668;6.860;2022-07-18T11:16:03;31.50;70.00
59857;DHT22;45733;52.668;6.860;2022-07-18T11:18:31;31.30;66.50
59857;DHT22;45733;52.668;6.860;2022-07-18T11:20:57;31.70;67.30
59857;DHT22;45733;52.668;6.860;2022-07-18T11:23:23;31.90;70.20
59857;DHT22;45733;52.668;6.860;2022-07-18T11:25:58;31.90;69.90
59857;DHT22;45733;52.668;6.860;2022-07-18T11:28:24;31.70;67.90
59857;DHT22;45733;52.668;6.860;2022-07-18T11:30:58;32.20;70.70
59857;DHT22;45733;52.668;6.860;2022-07-18T11:33:25;32.20;68.10
59857;DHT22;45733;52.668;6.860;2022-07-18T11:35:52;32.30;65.00
59857;DHT22;45733;52.668;6.860;2022-07-18T11:38:18;32.10;66.20
59857;DHT22;45733;52.668;6.860;2022-07-18T11:40:50;31.90;67.00
59857;DHT22;45733;52.668;6.860;2022-07-18T11:43:22;32.00;68.00
59857;DHT22;45733;52.668;6.860;2022-07-18T11:45:57;31.80;66.20
59857;DHT22;45733;52.668;6.860;2022-07-18T11:48:26;31.80;67.60
59857;DHT22;45733;52.668;6.860;2022-07-18T11:50:52;31.90;68.10
59857;DHT22;45733;52.668;6.860;2022-07-18T11:53:17;32.10;68.80
59857;DHT22;45733;52.668;6.860;2022-07-18T11:55:43;32.20;67.20
59857;DHT22;45733;52.668;6.860;2022-07-18T11:58:12;32.20;68.40
59857;DHT22;45733;52.668;6.860;2022-07-18T12:00:39;32.10;67.70
59857;DHT22;45733;52.668;6.860;2022-07-18T12:03:09;32.30;68.90
59857;DHT22;45733;52.668;6.860;2022-07-18T12:05:37;32.30;65.50
59857;DHT22;45733;52.668;6.860;2022-07-18T12:18:58;31.60;69.80
59857;DHT22;45733;52.668;6.860;2022-07-18T12:21:24;31.20;63.50
59857;DHT22;45733;52.668;6.860;2022-07-18T12:23:50;31.90;70.50
59857;DHT22;45733;52.668;6.860;2022-07-18T12:26:31;32.00;69.60
59857;DHT22;45733;52.668;6.860;2022-07-18T12:29:03;32.20;66.90
59857;DHT22;45733;52.668;6.860;2022-07-18T12:31:39;31.60;63.30
59857;DHT22;45733;52.668;6.860;2022-07-18T12:34:15;32.40;68.60
59857;DHT22;45733;52.668;6.860;2022-07-18T12:36:54;32.80;69.30
59857;DHT22;45733;52.668;6.860;2022-07-18T12:39:27;32.90;70.60
59857;DHT22;45733;52.668;6.860;2022-07-18T12:41:52;33.00;71.00
59857;DHT22;45733;52.668;6.860;2022-07-18T12:44:18;33.00;67.90
59857;DHT22;45733;52.668;6.860;2022-07-18T12:46:44;32.90;68.20
59857;DHT22;45733;52.668;6.860;2022-07-18T12:49:09;33.20;68.80
59857;DHT22;45733;52.668;6.860;2022-07-18T12:51:35;33.20;66.90
59857;DHT22;45733;52.668;6.860;2022-07-18T12:54:01;33.30;64.40
59857;DHT22;45733;52.668;6.860;2022-07-18T12:56:26;33.50;67.30
59857;DHT22;45733;52.668;6.860;2022-07-18T12:58:52;33.90;68.70
59857;DHT22;45733;52.668;6.860;2022-07-18T13:01:33;33.70;65.20
59857;DHT22;45733;52.668;6.860;2022-07-18T13:03:59;33.50;66.30
59857;DHT22;45733;52.668;6.860;2022-07-18T13:06:25;33.30;64.90
59857;DHT22;45733;52.668;6.860;2022-07-18T13:08:50;33.50;67.20
59857;DHT22;45733;52.668;6.860;2022-07-18T13:11:16;33.30;66.10
59857;DHT22;45733;52.668;6.860;2022-07-18T13:13:42;33.00;63.50
59857;DHT22;45733;52.668;6.860;2022-07-18T13:16:07;32.90;66.10
59857;DHT22;45733;52.668;6.860;2022-07-18T13:18:33;32.90;68.70
59857;DHT22;45733;52.668;6.860;2022-07-18T13:20:59;32.90;64.10
59857;DHT22;45733;52.668;6.860;2022-07-18T13:23:24;32.50;64.60
59857;DHT22;45733;52.668;6.860;2022-07-18T13:25:50;32.90;66.50
59857;DHT22;45733;52.668;6.860;2022-07-18T13:28:16;32.90;61.90
59857;DHT22;45733;52.668;6.860;2022-07-18T13:30:41;32.90;63.30
59857;DHT22;45733;52.668;6.860;2022-07-18T13:33:07;33.00;63.70
59857;DHT22;45733;52.668;6.860;2022-07-18T13:35:33;33.10;64.50
59857;DHT22;45733;52.668;6.860;2022-07-18T13:37:59;33.20;64.10
59857;DHT22;45733;52.668;6.860;2022-07-18T13:40:27;33.60;64.60
59857;DHT22;45733;52.668;6.860;2022-07-18T13:42:53;33.70;60.90
59857;DHT22;45733;52.668;6.860;2022-07-18T13:45:19;33.50;64.70
59857;DHT22;45733;52.668;6.860;2022-07-18T13:47:44;33.50;61.40
59857;DHT22;45733;52.668;6.860;2022-07-18T13:50:10;32.90;63.00
59857;DHT22;45733;52.668;6.860;2022-07-18T13:52:36;32.50;64.40
59857;DHT22;45733;52.668;6.860;2022-07-18T13:55:02;32.20;63.60
59857;DHT22;45733;52.668;6.860;2022-07-18T13:57:28;31.80;65.10
59857;DHT22;45733;52.668;6.860;2022-07-18T13:59:54;31.90;65.00
59857;DHT22;45733;52.668;6.860;2022-07-18T14:02:25;31.60;65.20
59857;DHT22;45733;52.668;6.860;2022-07-18T14:04:57;31.30;66.90
59857;DHT22;45733;52.668;6.860;2022-07-18T14:07:23;31.40;69.00
59857;DHT22;45733;52.668;6.860;2022-07-18T14:09:48;31.10;66.60
59857;DHT22;45733;52.668;6.860;2022-07-18T14:12:15;31.00;68.10
59857;DHT22;45733;52.668;6.860;2022-07-18T14:14:41;31.00;69.20
59857;DHT22;45733;52.668;6.860;2022-07-18T14:17:07;31.00;69.40
59857;DHT22;45733;52.668;6.860;2022-07-18T14:19:33;31.10;69.40
59857;DHT22;45733;52.668;6.860;2022-07-18T14:22:05;31.90;69.60
59857;DHT22;45733;52.668;6.860;2022-07-18T14:24:30;32.20;67.10
59857;DHT22;45733;52.668;6.860;2022-07-18T14:26:56;32.10;67.40
59857;DHT22;45733;52.668;6.860;2022-07-18T14:29:22;31.80;67.20
59857;DHT22;45733;52.668;6.860;2022-07-18T14:31:50;31.70;65.70
59857;DHT22;45733;52.668;6.860;2022-07-18T14:34:16;31.60;65.20
59857;DHT22;45733;52.668;6.860;2022-07-18T14:36:42;31.50;67.30
59857;DHT22;45733;52.668;6.860;2022-07-18T14:39:07;32.00;66.40
59857;DHT22;45733;52.668;6.860;2022-07-18T14:41:33;32.50;66.50
59857;DHT22;45733;52.668;6.860;2022-07-18T14:43:59;32.20;63.50
59857;DHT22;45733;52.668;6.860;2022-07-18T14:46:25;31.90;67.40
59857;DHT22;45733;52.668;6.860;2022-07-18T14:48:50;31.80;68.70
59857;DHT22;45733;52.668;6.860;2022-07-18T14:51:17;31.40;69.80
59857;DHT22;45733;52.668;6.860;2022-07-18T14:53:43;31.20;72.00
59857;DHT22;45733;52.668;6.860;2022-07-18T14:56:08;30.90;74.40
59857;DHT22;45733;52.668;6.860;2022-07-18T14:58:34;31.30;73.50
59857;DHT22;45733;52.668;6.860;2022-07-18T15:01:00;32.00;68.70
59857;DHT22;45733;52.668;6.860;2022-07-18T15:03:26;32.40;66.70
59857;DHT22;45733;52.668;6.860;2022-07-18T15:05:51;32.10;65.70
59857;DHT22;45733;52.668;6.860;2022-07-18T15:08:17;32.10;66.50
59857;DHT22;45733;52.668;6.860;2022-07-18T15:10:43;32.00;66.90
59857;DHT22;45733;52.668;6.860;2022-07-18T15:13:09;32.10;69.00
59857;DHT22;45733;52.668;6.860;2022-07-18T15:15:34;32.70;71.20
59857;DHT22;45733;52.668;6.860;2022-07-18T15:18:00;32.60;67.40
59857;DHT22;45733;52.668;6.860;2022-07-18T15:20:28;32.30;67.90
59857;DHT22;45733;52.668;6.860;2022-07-18T15:22:54;31.70;62.70
59857;DHT22;45733;52.668;6.860;2022-07-18T15:25:20;31.70;66.10
59857;DHT22;45733;52.668;6.860;2022-07-18T15:27:46;32.00;65.60
59857;DHT22;45733;52.668;6.860;2022-07-18T15:30:11;31.90;67.50
59857;DHT22;45733;52.668;6.860;2022-07-18T15:32:37;32.40;62.90
59857;DHT22;45733;52.668;6.860;2022-07-18T15:35:04;32.40;63.20
59857;DHT22;45733;52.668;6.860;2022-07-18T15:37:30;32.10;61.50
59857;DHT22;45733;52.668;6.860;2022-07-18T15:39:56;31.70;59.30
59857;DHT22;45733;52.668;6.860;2022-07-18T15:42:22;31.70;63.90
59857;DHT22;45733;52.668;6.860;2022-07-18T15:44:47;31.70;62.10
59857;DHT22;45733;52.668;6.860;2022-07-18T15:47:13;32.00;65.90
59857;DHT22;45733;52.668;6.860;2022-07-18T15:49:39;32.40;64.10
59857;DHT22;45733;52.668;6.860;2022-07-18T15:52:05;32.50;64.50
59857;DHT22;45733;52.668;6.860;2022-07-18T15:54:35;32.60;67.30
59857;DHT22;45733;52.668;6.860;2022-07-18T15:57:01;32.80;66.20